createdAt,value
2022-12-24T00:00:38.199Z,12.38
2022-12-24T00:03:05.132Z,12.68
2022-12-24T00:05:31.933Z,12.58
2022-12-24T00:07:58.563Z,12.44
2022-12-24T00:10:25.251Z,12.41
2022-12-24T00:12:53.163Z,12.29
2022-12-24T00:15:19.784Z,12.46
2022-12-24T00:17:46.435Z,12.92
2022-12-24T00:20:13.032Z,13.03
2022-12-24T00:22:39.659Z,12.97
2022-12-24T00:25:06.734Z,13.74
2022-12-24T00:27:33.355Z,13.20
2022-12-24T00:29:59.974Z,13.28
2022-12-24T00:32:26.587Z,13.27
2022-12-24T00:34:53.265Z,13.08
2022-12-24T00:37:20.490Z,13.51
2022-12-24T00:39:47.139Z,13.62
2022-12-24T00:42:13.730Z,13.52
2022-12-24T00:44:40.416Z,13.81
2022-12-24T00:47:11.981Z,13.91
2022-12-24T00:49:38.942Z,13.66
2022-12-24T00:52:05.668Z,13.85
2022-12-24T00:54:32.246Z,13.87
2022-12-24T00:56:58.893Z,13.67
2022-12-24T00:59:25.535Z,13.70
2022-12-24T01:01:52.235Z,13.46
2022-12-24T01:04:19.951Z,13.65
2022-12-24T01:06:46.604Z,13.20
2022-12-24T01:09:13.485Z,13.47
2022-12-24T01:11:40.246Z,13.90
2022-12-24T01:14:06.865Z,14.11
2022-12-24T01:16:33.527Z,14.33
2022-12-24T01:19:02.428Z,14.53
2022-12-24T01:21:29.073Z,13.95
2022-12-24T01:23:55.662Z,14.37
2022-12-24T01:26:22.305Z,13.21
2022-12-24T01:28:49.102Z,13.28
2022-12-24T01:31:18.500Z,13.98
2022-12-24T01:33:48.482Z,13.96
2022-12-24T01:36:15.529Z,14.24
2022-12-24T01:38:42.122Z,13.73
2022-12-24T01:41:15.456Z,13.97
2022-12-24T01:43:42.066Z,13.71
2022-12-24T01:46:25.503Z,13.69
2022-12-24T01:48:58.240Z,13.43
2022-12-24T01:51:29.720Z,13.51
2022-12-24T01:54:15.228Z,13.73
2022-12-24T01:56:50.979Z,14.00
2022-12-24T01:59:21.070Z,14.14
2022-12-24T02:01:51.104Z,14.06
2022-12-24T02:04:30.480Z,13.92
2022-12-24T02:06:57.361Z,13.83
2022-12-24T02:09:24.191Z,13.39
2022-12-24T02:11:51.093Z,13.49
2022-12-24T02:14:18.402Z,13.46
2022-12-24T02:17:11.205Z,12.99
2022-12-24T02:19:43.485Z,13.56
2022-12-24T02:22:31.073Z,13.01
2022-12-24T02:25:19.266Z,13.27
2022-12-24T02:28:16.555Z,13.77
2022-12-24T02:31:00.148Z,13.82
2022-12-24T02:33:37.797Z,14.06
2022-12-24T02:36:25.325Z,14.10
2022-12-24T02:39:01.983Z,13.94
2022-12-24T02:41:37.688Z,13.57
2022-12-24T02:44:04.763Z,13.42
2022-12-24T02:46:33.142Z,13.33
2022-12-24T02:49:01.167Z,12.64
2022-12-24T02:51:27.789Z,12.83
2022-12-24T02:53:54.470Z,13.05
2022-12-24T02:56:39.875Z,13.40
2022-12-24T02:59:14.852Z,13.44
2022-12-24T03:01:58.177Z,13.34
2022-12-24T03:04:46.562Z,12.87
2022-12-24T03:07:32.948Z,13.14
2022-12-24T03:10:34.660Z,12.83
2022-12-24T03:13:17.016Z,12.94
2022-12-24T03:15:47.148Z,12.83
2022-12-24T03:18:18.742Z,13.03
2022-12-24T03:20:54.318Z,12.62
2022-12-24T03:23:21.232Z,13.18
2022-12-24T03:25:47.830Z,13.68
2022-12-24T03:28:17.725Z,13.95
2022-12-24T03:30:46.956Z,14.08
2022-12-24T03:33:14.706Z,14.25
2022-12-24T03:35:41.347Z,14.00
2022-12-24T03:38:08.047Z,13.58
2022-12-24T03:40:34.661Z,14.07
2022-12-24T03:43:01.387Z,14.27
2022-12-24T03:45:28.188Z,14.31
2022-12-24T03:47:54.848Z,13.73
2022-12-24T03:50:21.535Z,13.46
2022-12-24T03:52:48.130Z,13.57
2022-12-24T03:55:14.740Z,13.95
2022-12-24T03:57:41.441Z,14.07
2022-12-24T04:00:08.715Z,14.07
2022-12-24T04:02:35.463Z,14.11
2022-12-24T04:05:02.130Z,13.93
2022-12-24T04:07:28.727Z,13.91
2022-12-24T04:09:55.305Z,13.51
2022-12-24T04:12:25.880Z,13.34
2022-12-24T04:15:10.456Z,13.72
2022-12-24T04:17:48.539Z,13.96
2022-12-24T04:20:31.366Z,13.77
2022-12-24T04:22:57.967Z,13.51
2022-12-24T04:25:24.586Z,13.31
2022-12-24T04:27:51.266Z,13.70
2022-12-24T04:30:18.115Z,13.78
2022-12-24T04:32:44.789Z,13.65
2022-12-24T04:35:11.446Z,13.61
2022-12-24T04:37:38.083Z,13.48
2022-12-24T04:40:05.137Z,13.53
2022-12-24T04:42:31.777Z,13.46
2022-12-24T04:44:58.407Z,12.98
2022-12-24T04:47:25.002Z,13.47
2022-12-24T04:49:51.653Z,13.60
2022-12-24T04:52:18.289Z,13.76
2022-12-24T04:54:44.902Z,13.74
2022-12-24T04:57:11.517Z,13.91
2022-12-24T04:59:38.148Z,13.70
2022-12-24T05:02:04.875Z,13.51
2022-12-24T05:04:31.671Z,13.42
2022-12-24T05:06:58.262Z,13.22
2022-12-24T05:09:25.320Z,13.20
2022-12-24T05:11:51.970Z,13.19
2022-12-24T05:14:18.588Z,12.57
2022-12-24T05:16:45.381Z,12.58
2022-12-24T05:19:12.160Z,12.51
2022-12-24T05:21:39.127Z,12.60
2022-12-24T05:24:05.940Z,12.96
2022-12-24T05:26:40.662Z,12.68
2022-12-24T05:29:09.062Z,12.59
2022-12-24T05:31:36.238Z,12.40
2022-12-24T05:34:03.072Z,12.12
2022-12-24T05:36:30.640Z,12.39
2022-12-24T05:38:57.792Z,12.79
2022-12-24T05:41:25.233Z,12.58
2022-12-24T05:43:52.481Z,12.45
2022-12-24T05:46:21.907Z,12.47
2022-12-24T05:48:50.179Z,12.56
2022-12-24T05:51:19.276Z,12.31
2022-12-24T05:53:46.969Z,11.83
2022-12-24T05:56:16.938Z,11.91
2022-12-24T05:58:44.294Z,12.44
2022-12-24T06:01:12.308Z,12.13
2022-12-24T06:03:39.036Z,11.94
2022-12-24T06:06:07.199Z,12.09
2022-12-24T06:08:34.889Z,11.95
2022-12-24T06:11:04.769Z,11.96
2022-12-24T06:13:31.558Z,11.97
2022-12-24T06:16:00.806Z,11.81
2022-12-24T06:18:30.181Z,12.10
2022-12-24T06:20:57.839Z,12.11
2022-12-24T06:23:25.167Z,12.05
2022-12-24T06:25:52.475Z,11.65
2022-12-24T06:28:19.064Z,11.68
2022-12-24T06:30:50.906Z,11.84
2022-12-24T06:33:18.939Z,11.88
2022-12-24T06:35:46.871Z,12.37
2022-12-24T06:38:14.869Z,12.12
2022-12-24T06:40:43.461Z,12.17
2022-12-24T06:43:11.094Z,12.14
2022-12-24T06:45:37.871Z,11.89
2022-12-24T06:48:04.856Z,11.94
2022-12-24T06:50:32.408Z,11.94
2022-12-24T06:52:59.116Z,11.65
2022-12-24T06:55:25.734Z,11.97
2022-12-24T06:57:52.344Z,11.78
2022-12-24T07:00:20.780Z,11.77
2022-12-24T07:02:48.190Z,12.63
2022-12-24T07:05:15.050Z,12.43
2022-12-24T07:07:43.972Z,12.23
2022-12-24T07:10:12.906Z,11.90
2022-12-24T07:12:39.711Z,12.04
2022-12-24T07:15:06.960Z,11.83
2022-12-24T07:17:33.707Z,11.98
2022-12-24T07:20:00.375Z,12.08
2022-12-24T07:22:26.947Z,12.09
2022-12-24T07:24:53.578Z,12.16
2022-12-24T07:27:20.512Z,12.27
2022-12-24T07:29:47.375Z,12.31
2022-12-24T07:32:14.142Z,11.97
2022-12-24T07:34:40.734Z,12.02
2022-12-24T07:37:07.882Z,12.01
2022-12-24T07:39:34.553Z,11.72
2022-12-24T07:42:01.178Z,11.84
2022-12-24T07:44:27.868Z,12.54
2022-12-24T07:46:54.581Z,12.66
2022-12-24T07:49:21.211Z,12.79
2022-12-24T07:51:47.826Z,12.78
2022-12-24T07:54:14.592Z,12.78
2022-12-24T07:56:42.921Z,12.73
2022-12-24T07:59:13.303Z,12.72
2022-12-24T08:01:40.487Z,13.10
2022-12-24T08:04:07.233Z,12.82
2022-12-24T08:06:34.013Z,12.81
2022-12-24T08:09:00.704Z,12.82
2022-12-24T08:11:27.345Z,12.50
2022-12-24T08:13:54.082Z,12.42
2022-12-24T08:16:20.800Z,12.46
2022-12-24T08:18:47.446Z,12.40
2022-12-24T08:21:14.177Z,12.59
2022-12-24T08:23:40.771Z,12.30
2022-12-24T08:26:08.789Z,12.65
2022-12-24T08:28:39.200Z,13.16
2022-12-24T08:31:06.477Z,13.29
2022-12-24T08:33:33.095Z,13.38
2022-12-24T08:36:01.606Z,13.41
2022-12-24T08:38:28.491Z,13.07
2022-12-24T08:40:55.777Z,12.99
2022-12-24T08:43:24.321Z,13.18
2022-12-24T08:45:50.949Z,13.14
2022-12-24T08:48:17.649Z,13.06
2022-12-24T08:50:44.443Z,12.86
2022-12-24T08:53:11.525Z,12.78
2022-12-24T08:55:38.714Z,12.71
2022-12-24T08:58:05.685Z,12.66
2022-12-24T09:00:32.394Z,13.09
2022-12-24T09:02:59.228Z,13.04
2022-12-24T09:05:26.133Z,13.20
2022-12-24T09:07:53.240Z,12.97
2022-12-24T09:10:19.991Z,13.14
2022-12-24T09:12:46.858Z,11.61
2022-12-24T09:15:13.613Z,11.69
2022-12-24T09:17:40.395Z,11.79
2022-12-24T09:20:08.053Z,11.12
2022-12-24T09:22:37.360Z,11.30
2022-12-24T09:25:04.524Z,10.91
2022-12-24T09:27:31.524Z,11.54
2022-12-24T09:29:58.125Z,11.51
2022-12-24T09:32:24.877Z,11.48
2022-12-24T09:34:51.574Z,11.21
2022-12-24T09:37:18.517Z,11.49
2022-12-24T09:39:45.182Z,11.80
2022-12-24T09:42:28.480Z,11.84
2022-12-24T09:45:19.802Z,11.68
2022-12-24T09:47:55.840Z,10.86
2022-12-24T09:50:40.527Z,11.18
2022-12-24T09:53:21.481Z,11.07
2022-12-24T09:55:53.360Z,11.58
2022-12-24T09:58:27.863Z,11.64
2022-12-24T10:00:57.121Z,11.76
2022-12-24T10:03:24.015Z,11.83
2022-12-24T10:05:57.036Z,11.45
2022-12-24T10:09:07.021Z,12.13
2022-12-24T10:12:07.652Z,12.55
2022-12-24T10:14:46.035Z,13.10
2022-12-24T10:17:27.615Z,13.52
2022-12-24T10:20:21.662Z,13.41
2022-12-24T10:23:17.545Z,13.91
2022-12-24T10:26:12.105Z,14.14
2022-12-24T10:29:06.811Z,14.17
2022-12-24T10:31:44.099Z,14.15
2022-12-24T10:34:23.539Z,14.33
2022-12-24T10:36:50.653Z,13.93
2022-12-24T10:39:22.645Z,14.42
2022-12-24T10:41:53.385Z,14.62
2022-12-24T10:44:27.653Z,14.70
2022-12-24T10:46:55.409Z,14.89
2022-12-24T10:49:36.719Z,15.06
2022-12-24T10:52:10.631Z,15.22
2022-12-24T10:54:37.640Z,15.18
2022-12-24T10:57:06.511Z,14.85
2022-12-24T10:59:39.283Z,15.08
2022-12-24T11:02:29.315Z,14.64
2022-12-24T11:04:56.108Z,14.85
2022-12-24T11:07:23.907Z,14.90
2022-12-24T11:10:02.557Z,14.82
2022-12-24T11:13:05.696Z,14.12
2022-12-24T11:15:35.300Z,14.43
2022-12-24T11:18:14.777Z,14.76
2022-12-24T11:20:49.117Z,14.70
2022-12-24T11:23:19.538Z,14.97
2022-12-24T11:25:54.802Z,15.12
2022-12-24T11:28:32.200Z,15.17
2022-12-24T11:31:05.962Z,14.84
2022-12-24T11:33:47.140Z,14.82
2022-12-24T11:36:14.224Z,14.57
2022-12-24T11:38:40.863Z,13.69
2022-12-24T11:41:12.334Z,14.32
2022-12-24T11:43:49.847Z,14.21
2022-12-24T11:46:35.493Z,14.64
2022-12-24T11:49:13.192Z,14.84
2022-12-24T11:52:00.559Z,15.06
2022-12-24T11:54:33.872Z,15.17
2022-12-24T11:57:02.110Z,15.01
2022-12-24T11:59:45.697Z,15.31
2022-12-24T12:02:26.299Z,15.41
2022-12-24T12:04:59.492Z,15.36
2022-12-24T12:07:34.086Z,15.22
2022-12-24T12:10:19.148Z,15.50
2022-12-24T12:12:57.271Z,15.68
2022-12-24T12:15:35.107Z,15.68
2022-12-24T12:18:17.554Z,14.44
2022-12-24T12:20:58.388Z,13.77
2022-12-24T12:23:40.177Z,14.15
2022-12-24T12:26:06.752Z,14.37
2022-12-24T12:29:09.019Z,13.25
2022-12-24T12:31:44.790Z,13.54
2022-12-24T12:34:27.644Z,13.59
2022-12-24T12:37:19.706Z,13.52
2022-12-24T12:39:47.166Z,14.24
2022-12-24T12:42:32.137Z,14.48
2022-12-24T12:45:30.965Z,14.98
2022-12-24T12:48:29.858Z,15.10
2022-12-24T12:51:07.203Z,14.91
2022-12-24T12:54:02.108Z,14.99
2022-12-24T12:56:35.799Z,14.35
2022-12-24T12:59:19.143Z,13.49
2022-12-24T13:02:12.749Z,13.43
2022-12-24T13:04:42.027Z,13.07
2022-12-24T13:07:11.544Z,12.99
2022-12-24T13:10:08.190Z,12.71
2022-12-24T13:12:47.793Z,12.70
2022-12-24T13:15:14.356Z,12.71
2022-12-24T13:17:53.135Z,12.72
2022-12-24T13:20:48.139Z,12.49
2022-12-24T13:23:19.935Z,12.98
2022-12-24T13:25:50.010Z,12.78
2022-12-24T13:28:18.506Z,13.45
2022-12-24T13:30:45.211Z,13.20
2022-12-24T13:33:34.090Z,13.03
2022-12-24T13:36:02.279Z,13.02
2022-12-24T13:38:28.885Z,13.32
2022-12-24T13:40:56.088Z,12.87
2022-12-24T13:43:22.761Z,13.45
2022-12-24T13:45:51.373Z,13.96
2022-12-24T13:48:33.007Z,13.41
2022-12-24T13:51:24.888Z,14.09
2022-12-24T13:53:59.455Z,13.68
2022-12-24T13:56:31.012Z,14.15
2022-12-24T13:59:38.919Z,13.89
2022-12-24T14:02:20.361Z,13.62
2022-12-24T14:04:51.913Z,13.71
2022-12-24T14:07:20.651Z,13.95
2022-12-24T14:09:52.364Z,14.31
2022-12-24T14:12:48.045Z,14.57
2022-12-24T14:15:45.565Z,14.57
2022-12-24T14:18:19.249Z,14.33
2022-12-24T14:20:52.053Z,14.63
2022-12-24T14:23:55.827Z,14.93
2022-12-24T14:26:29.898Z,15.08
2022-12-24T14:29:03.230Z,14.43
2022-12-24T14:31:30.030Z,15.03
2022-12-24T14:34:13.003Z,15.17
2022-12-24T14:36:44.135Z,15.12
2022-12-24T14:39:23.637Z,15.34
2022-12-24T14:42:07.991Z,15.46
2022-12-24T14:44:53.271Z,15.65
2022-12-24T14:47:55.156Z,15.53
2022-12-24T14:50:57.610Z,15.55
2022-12-24T14:53:55.646Z,15.55
2022-12-24T14:56:22.875Z,15.46
2022-12-24T14:58:50.148Z,15.36
2022-12-24T15:01:24.249Z,15.42
2022-12-24T15:04:03.568Z,15.52
2022-12-24T15:06:35.648Z,15.39
2022-12-24T15:09:02.902Z,15.15
2022-12-24T15:11:30.988Z,14.97
2022-12-24T15:14:00.276Z,15.16
2022-12-24T15:16:36.766Z,15.18
2022-12-24T15:19:11.319Z,15.25
2022-12-24T15:21:42.705Z,15.31
2022-12-24T15:24:46.466Z,15.38
2022-12-24T15:27:26.084Z,15.46
2022-12-24T15:29:57.183Z,15.44
2022-12-24T15:32:24.133Z,15.54
2022-12-24T15:34:54.090Z,15.37
2022-12-24T15:37:21.259Z,14.29
2022-12-24T15:39:57.871Z,14.16
2022-12-24T15:42:27.545Z,14.31
2022-12-24T15:45:05.985Z,14.29
2022-12-24T15:47:38.417Z,14.64
2022-12-24T15:50:30.325Z,14.83
2022-12-24T15:53:19.309Z,14.89
2022-12-24T15:55:59.774Z,15.03
2022-12-24T15:58:29.042Z,15.11
2022-12-24T16:01:06.865Z,15.14
2022-12-24T16:03:36.598Z,15.17
2022-12-24T16:06:11.165Z,15.06
2022-12-24T16:08:39.476Z,14.90
2022-12-24T16:11:09.012Z,14.73
2022-12-24T16:13:51.625Z,14.29
2022-12-24T16:16:22.456Z,13.45
2022-12-24T16:18:58.511Z,14.11
2022-12-24T16:21:32.909Z,14.40
2022-12-24T16:24:14.685Z,14.57
2022-12-24T16:26:44.794Z,13.59
2022-12-24T16:29:12.382Z,13.62
2022-12-24T16:31:44.005Z,14.09
2022-12-24T16:34:14.937Z,14.38
2022-12-24T16:36:42.745Z,14.37
2022-12-24T16:39:30.987Z,14.35
2022-12-24T16:42:03.782Z,13.79
2022-12-24T16:44:30.494Z,13.58
2022-12-24T16:47:00.435Z,13.45
2022-12-24T16:49:27.610Z,12.70
2022-12-24T16:51:54.985Z,12.99
2022-12-24T16:54:21.850Z,13.69
2022-12-24T16:56:48.558Z,13.87
2022-12-24T16:59:21.434Z,14.02
2022-12-24T17:01:49.316Z,14.13
2022-12-24T17:04:18.194Z,14.32
2022-12-24T17:06:45.347Z,14.20
2022-12-24T17:09:12.803Z,14.42
2022-12-24T17:11:39.481Z,14.44
2022-12-24T17:14:08.571Z,14.49
2022-12-24T17:16:36.531Z,14.57
2022-12-24T17:19:03.719Z,14.35
2022-12-24T17:21:30.650Z,13.66
2022-12-24T17:23:57.312Z,13.99
2022-12-24T17:26:23.902Z,14.15
2022-12-24T17:28:54.338Z,14.36
2022-12-24T17:31:21.977Z,14.42
2022-12-24T17:33:50.287Z,14.30
2022-12-24T17:36:17.758Z,14.31
2022-12-24T17:38:48.712Z,14.33
2022-12-24T17:41:18.797Z,14.32
2022-12-24T17:43:47.057Z,14.05
2022-12-24T17:46:21.843Z,14.26
2022-12-24T17:48:50.331Z,14.19
2022-12-24T17:51:20.640Z,14.14
2022-12-24T17:53:47.880Z,14.23
2022-12-24T17:56:15.799Z,14.19
2022-12-24T17:58:44.363Z,13.76
2022-12-24T18:01:14.193Z,13.99
2022-12-24T18:03:41.212Z,14.17
2022-12-24T18:06:10.194Z,13.98
2022-12-24T18:08:38.651Z,14.19
2022-12-24T18:11:25.088Z,14.17
2022-12-24T18:13:51.763Z,14.20
2022-12-24T18:16:20.738Z,14.05
2022-12-24T18:18:48.722Z,13.63
2022-12-24T18:21:17.841Z,14.01
2022-12-24T18:23:46.725Z,14.19
2022-12-24T18:26:15.639Z,14.31
2022-12-24T18:28:43.452Z,14.37
2022-12-24T18:31:16.981Z,14.44
2022-12-24T18:33:45.466Z,13.23
2022-12-24T18:36:13.555Z,13.56
2022-12-24T18:38:42.629Z,13.82
2022-12-24T18:41:12.357Z,14.16
2022-12-24T18:43:39.210Z,14.11
2022-12-24T18:46:07.714Z,13.94
2022-12-24T18:48:34.595Z,14.06
2022-12-24T18:51:02.288Z,13.95
2022-12-24T18:53:28.878Z,14.11
2022-12-24T18:55:55.816Z,14.04
2022-12-24T18:58:22.452Z,13.68
2022-12-24T19:00:49.195Z,13.60
2022-12-24T19:03:16.715Z,13.96
2022-12-24T19:05:43.704Z,14.14
2022-12-24T19:08:37.665Z,14.01
2022-12-24T19:10:57.030Z,12.86
2022-12-24T19:13:23.760Z,13.38
2022-12-24T19:15:50.534Z,12.76
2022-12-24T19:18:17.286Z,13.29
2022-12-24T19:20:43.981Z,13.67
2022-12-24T19:23:10.842Z,13.96
2022-12-24T19:25:37.472Z,14.12
2022-12-24T19:28:04.611Z,14.14
2022-12-24T19:30:31.242Z,14.14
2022-12-24T19:32:58.125Z,14.23
2022-12-24T19:35:24.824Z,14.08
2022-12-24T19:37:51.493Z,13.95
2022-12-24T19:40:18.468Z,13.38
2022-12-24T19:42:45.081Z,12.78
2022-12-24T19:45:11.924Z,13.15
2022-12-24T19:47:38.578Z,13.38
2022-12-24T19:50:05.899Z,12.96
2022-12-24T19:52:32.521Z,12.56
2022-12-24T19:54:59.233Z,13.21
2022-12-24T19:57:26.036Z,13.63
2022-12-24T19:59:52.723Z,13.53
2022-12-24T20:02:19.535Z,13.80
2022-12-24T20:04:46.685Z,13.94
2022-12-24T20:07:13.418Z,14.15
2022-12-24T20:09:40.059Z,14.16
2022-12-24T20:12:15.346Z,14.26
2022-12-24T20:14:42.231Z,14.20
2022-12-24T20:17:09.117Z,14.18
2022-12-24T20:19:35.877Z,14.26
2022-12-24T20:22:02.522Z,14.21
2022-12-24T20:24:29.170Z,14.06
2022-12-24T20:26:55.864Z,13.94
2022-12-24T20:29:22.526Z,13.83
2022-12-24T20:31:49.300Z,14.05
2022-12-24T20:34:16.033Z,14.12
2022-12-24T20:36:43.048Z,13.97
2022-12-24T20:39:12.088Z,13.87
2022-12-24T20:41:38.972Z,13.87
2022-12-24T20:44:05.791Z,13.78
2022-12-24T20:46:33.015Z,13.83
2022-12-24T20:48:59.698Z,13.82
2022-12-24T20:51:28.335Z,13.85
2022-12-24T20:53:58.637Z,13.58
2022-12-24T20:56:26.070Z,13.29
2022-12-24T20:58:53.022Z,13.51
2022-12-24T21:01:26.544Z,13.14
2022-12-24T21:03:55.216Z,13.41
2022-12-24T21:06:23.472Z,13.49
2022-12-24T21:08:51.010Z,13.35
2022-12-24T21:11:18.673Z,13.36
2022-12-24T21:13:45.523Z,13.31
2022-12-24T21:16:12.196Z,13.41
2022-12-24T21:18:38.866Z,13.49
2022-12-24T21:21:05.653Z,13.06
2022-12-24T21:23:32.265Z,13.21
2022-12-24T21:26:04.986Z,13.54
2022-12-24T21:28:31.812Z,13.56
2022-12-24T21:30:58.465Z,13.06
2022-12-24T21:33:25.167Z,13.22
2022-12-24T21:35:58.220Z,13.59
2022-12-24T21:38:25.475Z,13.52
2022-12-24T21:41:00.481Z,13.81
2022-12-24T21:43:29.763Z,13.91
2022-12-24T21:45:56.821Z,13.94
2022-12-24T21:48:24.262Z,13.87
2022-12-24T21:50:51.508Z,13.83
2022-12-24T21:53:18.295Z,13.87
2022-12-24T21:55:45.112Z,13.92
2022-12-24T21:58:11.708Z,13.98
2022-12-24T22:00:41.052Z,14.00
2022-12-24T22:03:08.225Z,13.85
2022-12-24T22:05:35.259Z,13.48
2022-12-24T22:08:02.044Z,13.80
2022-12-24T22:10:28.760Z,13.72
2022-12-24T22:12:56.232Z,13.71
2022-12-24T22:15:22.867Z,13.53
2022-12-24T22:17:49.497Z,13.70
2022-12-24T22:20:16.198Z,13.57
2022-12-24T22:22:42.827Z,13.56
2022-12-24T22:25:09.680Z,13.38
2022-12-24T22:27:36.346Z,13.34
2022-12-24T22:30:03.101Z,13.33
2022-12-24T22:32:29.740Z,13.19
2022-12-24T22:34:56.341Z,13.19
2022-12-24T22:37:22.939Z,13.23
2022-12-24T22:39:49.558Z,13.22
2022-12-24T22:42:17.085Z,12.98
2022-12-24T22:44:43.864Z,13.04
2022-12-24T22:47:10.485Z,13.24
2022-12-24T22:49:37.094Z,13.43
2022-12-24T22:52:03.857Z,13.61
2022-12-24T22:54:30.580Z,13.50
2022-12-24T22:56:57.204Z,13.71
2022-12-24T22:59:23.825Z,13.77
2022-12-24T23:01:50.542Z,13.81
2022-12-24T23:04:17.194Z,13.65
2022-12-24T23:06:43.851Z,13.67
2022-12-24T23:09:14.150Z,13.60
2022-12-24T23:11:40.792Z,13.33
2022-12-24T23:14:07.511Z,13.67
2022-12-24T23:16:35.094Z,13.72
2022-12-24T23:19:03.988Z,13.73
2022-12-24T23:21:31.375Z,13.68
2022-12-24T23:23:59.486Z,13.78
2022-12-24T23:26:26.882Z,13.32
2022-12-24T23:28:53.839Z,12.99
2022-12-24T23:31:22.112Z,12.76
2022-12-24T23:33:49.191Z,12.79
2022-12-24T23:36:16.769Z,13.03
2022-12-24T23:38:43.864Z,13.17
2022-12-24T23:41:11.619Z,12.77
2022-12-24T23:43:38.613Z,12.61
2022-12-24T23:46:05.950Z,12.16
2022-12-24T23:48:32.640Z,12.76
2022-12-24T23:51:28.612Z,13.04
2022-12-24T23:53:56.833Z,13.12
2022-12-24T23:56:25.243Z,13.00
2022-12-24T23:58:51.885Z,13.02
